Time,TemperatureF,DewpointF,PressureIn,WindDirection,WindDirectionDegrees,WindSpeedMPH,WindSpeedGustMPH,Humidity,HourlyPrecipIn,Conditions,Clouds,dailyrainin,SoftwareType,DateUTC
2013-08-16 00:00:00,55.2,47.1,30.17,North,0,0.0,0.0,74,0.00,,CLR,0.00,VWS V14.00,2013-08-16 04:00:00,
2013-08-16 00:15:00,54.5,46.8,30.17,North,0,0.0,0.0,75,0.00,,CLR,0.00,VWS V14.00,2013-08-16 04:15:00,
2013-08-16 00:30:00,54.1,47.1,30.17,North,0,0.0,0.0,77,0.00,,CLR,0.00,VWS V14.00,2013-08-16 04:30:00,
2013-08-16 00:45:00,54.0,47.3,30.17,North,0,0.0,0.0,78,0.00,,CLR,0.00,VWS V14.00,2013-08-16 04:45:00,
2013-08-16 01:00:00,53.6,46.9,30.17,North,0,0.0,0.0,78,0.00,,CLR,0.00,VWS V14.00,2013-08-16 05:00:00,
2013-08-16 01:15:00,53.4,47.4,30.14,North,0,0.0,0.0,80,0.00,,CLR,0.00,VWS V14.00,2013-08-16 05:15:00,
2013-08-16 01:30:00,53.4,47.7,30.14,North,0,0.0,0.0,81,0.00,,CLR,0.00,VWS V14.00,2013-08-16 05:30:00,
2013-08-16 01:45:00,53.2,47.6,30.14,North,0,0.0,0.0,81,0.00,,CLR,0.00,VWS V14.00,2013-08-16 05:45:00,
2013-08-16 02:00:00,52.7,47.0,30.14,North,0,0.0,0.0,81,0.00,,CLR,0.00,VWS V14.00,2013-08-16 06:00:00,
2013-08-16 02:15:00,52.7,47.4,30.14,North,0,0.0,0.0,82,0.00,,CLR,0.00,VWS V14.00,2013-08-16 06:15:00,
2013-08-16 02:30:00,52.2,46.8,30.14,North,0,0.0,0.0,82,0.00,,CLR,0.00,VWS V14.00,2013-08-16 06:30:00,
2013-08-16 02:45:00,52.0,47.0,30.14,North,0,0.0,0.0,83,0.00,,CLR,0.00,VWS V14.00,2013-08-16 06:45:00,
2013-08-16 03:00:00,52.0,47.3,30.14,North,0,0.0,0.0,84,0.00,,CLR,0.00,VWS V14.00,2013-08-16 07:00:00,
2013-08-16 03:15:00,51.8,47.1,30.14,North,0,0.0,0.0,84,0.00,,CLR,0.00,VWS V14.00,2013-08-16 07:15:00,
2013-08-16 03:30:00,51.8,47.4,30.14,North,0,0.0,0.0,85,0.00,,CLR,0.00,VWS V14.00,2013-08-16 07:30:00,
2013-08-16 03:45:00,51.8,47.4,30.14,North,0,0.0,0.0,85,0.00,,CLR,0.00,VWS V14.00,2013-08-16 07:45:00,
2013-08-16 04:00:00,51.6,47.3,30.14,North,0,0.0,0.0,85,0.00,,CLR,0.00,VWS V14.00,2013-08-16 08:00:00,
2013-08-16 04:15:00,51.3,46.9,30.14,North,0,0.0,0.0,85,0.00,,CLR,0.00,VWS V14.00,2013-08-16 08:15:00,
2013-08-16 04:30:00,51.3,47.2,30.14,North,0,0.0,0.0,86,0.00,,CLR,0.00,VWS V14.00,2013-08-16 08:30:00,
2013-08-16 04:44:00,51.3,47.2,30.14,North,0,0.0,0.0,86,0.00,,CLR,0.00,VWS V14.00,2013-08-16 08:44:00,
2013-08-16 04:59:00,51.3,47.2,30.14,North,0,0.0,0.0,86,0.00,,CLR,0.00,VWS V14.00,2013-08-16 08:59:00,
2013-08-16 05:14:00,51.3,47.2,30.14,North,0,0.0,0.0,86,0.00,,CLR,0.00,VWS V14.00,2013-08-16 09:14:00,
2013-08-16 05:29:00,51.1,47.0,30.17,North,0,0.0,0.0,86,0.00,,CLR,0.00,VWS V14.00,2013-08-16 09:29:00,
2013-08-16 05:44:00,50.7,46.7,30.17,North,0,0.0,0.0,86,0.00,,CLR,0.00,VWS V14.00,2013-08-16 09:44:00,
2013-08-16 05:59:00,50.4,46.3,30.17,North,0,0.0,0.0,86,0.00,,CLR,0.00,VWS V14.00,2013-08-16 09:59:00,
2013-08-16 06:14:00,50.0,46.0,30.17,North,0,0.0,0.0,86,0.00,,CLR,0.00,VWS V14.00,2013-08-16 10:14:00,
2013-08-16 06:29:00,50.2,46.5,30.17,North,0,0.0,0.0,87,0.00,,CLR,0.00,VWS V14.00,2013-08-16 10:29:00,
2013-08-16 06:44:00,50.2,46.5,30.17,North,0,0.0,0.0,87,0.00,,CLR,0.00,VWS V14.00,2013-08-16 10:44:00,
2013-08-16 06:59:00,50.9,47.2,30.17,North,0,0.0,0.0,87,0.00,,BKN004,0.00,VWS V14.00,2013-08-16 10:59:00,
2013-08-16 07:14:00,52.3,48.6,30.20,North,0,0.0,0.0,87,0.00,,,0.00,VWS V14.00,2013-08-16 11:14:00,
2013-08-16 07:29:00,53.2,49.8,30.20,North,0,0.0,0.0,88,0.00,,,0.00,VWS V14.00,2013-08-16 11:29:00,
2013-08-16 07:44:00,54.0,50.2,30.20,North,0,0.0,0.0,87,0.00,,,0.00,VWS V14.00,2013-08-16 11:44:00,
2013-08-16 07:59:00,54.9,51.1,30.20,North,0,0.0,0.0,87,0.00,,,0.00,VWS V14.00,2013-08-16 11:59:00,
2013-08-16 08:14:00,56.5,52.7,30.20,North,0,0.0,0.0,87,0.00,,,0.00,VWS V14.00,2013-08-16 12:14:00,
2013-08-16 08:29:00,57.4,52.9,30.20,North,0,0.0,0.0,85,0.00,,,0.00,VWS V14.00,2013-08-16 12:29:00,
2013-08-16 08:44:00,59.5,54.4,30.20,North,0,0.0,0.0,83,0.00,,,0.00,VWS V14.00,2013-08-16 12:44:00,
2013-08-16 08:59:00,60.6,52.7,30.20,North,0,0.0,0.0,75,0.00,,,0.00,VWS V14.00,2013-08-16 12:59:00,
2013-08-16 09:14:00,62.2,51.2,30.20,North,0,0.0,0.0,67,0.00,,,0.00,VWS V14.00,2013-08-16 13:14:00,
2013-08-16 09:29:00,64.4,51.5,30.20,North,0,0.0,0.0,63,0.00,,,0.00,VWS V14.00,2013-08-16 13:29:00,
2013-08-16 09:44:00,66.0,47.4,30.20,North,0,0.0,0.0,51,0.00,,,0.00,VWS V14.00,2013-08-16 13:44:00,
2013-08-16 10:00:00,67.5,41.7,30.20,North,0,0.0,0.0,39,0.00,,,0.00,VWS V14.00,2013-08-16 14:00:00,
2013-08-16 10:14:00,68.0,37.1,30.20,North,0,0.0,0.0,32,0.00,,FEW002,0.00,VWS V14.00,2013-08-16 14:14:00,
2013-08-16 10:29:00,69.6,33.2,30.20,North,0,0.0,0.0,26,0.00,,FEW002,0.00,VWS V14.00,2013-08-16 14:29:00,
2013-08-16 10:44:00,72.3,32.5,30.20,North,0,0.0,0.0,23,0.00,,FEW002,0.00,VWS V14.00,2013-08-16 14:44:00,
2013-08-16 10:59:00,72.7,52.4,30.20,North,0,0.0,0.0,49,0.00,,CLR,0.00,VWS V14.00,2013-08-16 14:59:00,
2013-08-16 11:14:00,73.8,51.7,30.17,North,0,0.0,0.0,46,0.00,,CLR,0.00,VWS V14.00,2013-08-16 15:14:00,
2013-08-16 11:29:00,75.2,53.0,30.17,North,0,0.0,0.0,46,0.00,,CLR,0.00,VWS V14.00,2013-08-16 15:29:00,
2013-08-16 11:44:00,76.1,52.0,30.17,North,0,0.0,0.0,43,0.00,,CLR,0.00,VWS V14.00,2013-08-16 15:44:00,
2013-08-16 11:59:00,75.4,51.3,30.17,North,0,0.0,0.0,43,0.00,,CLR,0.00,VWS V14.00,2013-08-16 15:59:00,
2013-08-16 12:14:00,77.0,52.8,30.17,North,0,0.0,0.0,43,0.00,,CLR,0.00,VWS V14.00,2013-08-16 16:14:00,
2013-08-16 12:29:00,77.4,53.1,30.17,North,0,0.0,0.0,43,0.00,,CLR,0.00,VWS V14.00,2013-08-16 16:29:00,
2013-08-16 12:44:00,77.4,53.1,30.17,North,0,0.0,0.0,43,0.00,,CLR,0.00,VWS V14.00,2013-08-16 16:44:00,
2013-08-16 13:00:00,77.0,52.8,30.17,North,0,0.0,0.0,43,0.00,,CLR,0.00,VWS V14.00,2013-08-16 17:00:00,
2013-08-16 13:14:00,80.6,55.4,30.17,North,0,0.0,0.0,42,0.00,,CLR,0.00,VWS V14.00,2013-08-16 17:14:00,
2013-08-16 13:29:00,78.3,54.0,30.17,North,0,0.0,0.0,43,0.00,,CLR,0.00,VWS V14.00,2013-08-16 17:29:00,
2013-08-16 14:00:00,79.0,54.6,30.17,North,0,0.0,0.0,43,0.00,,CLR,0.00,VWS V14.00,2013-08-16 18:00:00,
2013-08-16 14:15:00,81.0,55.7,30.17,North,0,0.0,0.0,42,0.00,,CLR,0.00,VWS V14.00,2013-08-16 18:15:00,
2013-08-16 14:30:00,82.0,56.7,30.17,North,0,0.0,0.0,42,0.00,,CLR,0.00,VWS V14.00,2013-08-16 18:30:00,
2013-08-16 14:45:00,79.9,55.4,30.17,North,0,0.0,0.0,43,0.00,,CLR,0.00,VWS V14.00,2013-08-16 18:45:00,
2013-08-16 15:00:00,81.9,56.5,30.17,North,0,0.0,0.0,42,0.00,,CLR,0.00,VWS V14.00,2013-08-16 19:00:00,
2013-08-16 15:15:00,80.6,55.4,30.17,North,0,0.0,0.0,42,0.00,,CLR,0.00,VWS V14.00,2013-08-16 19:15:00,
2013-08-16 15:30:00,82.2,56.9,30.17,North,0,0.0,0.0,42,0.00,,CLR,0.00,VWS V14.00,2013-08-16 19:30:00,
2013-08-16 15:45:00,80.8,55.6,30.17,North,0,0.0,0.0,42,0.00,,CLR,0.00,VWS V14.00,2013-08-16 19:45:00,
2013-08-16 16:00:00,79.9,55.4,30.14,North,0,0.0,0.0,43,0.00,,CLR,0.00,VWS V14.00,2013-08-16 20:00:00,
2013-08-16 16:15:00,79.2,54.8,30.14,North,0,0.0,0.0,43,0.00,,CLR,0.00,VWS V14.00,2013-08-16 20:15:00,
2013-08-16 16:30:00,80.6,55.4,30.14,North,0,0.0,0.0,42,0.00,,CLR,0.00,VWS V14.00,2013-08-16 20:30:00,
2013-08-16 16:45:00,80.4,55.9,30.14,North,0,0.0,0.0,43,0.00,,CLR,0.00,VWS V14.00,2013-08-16 20:45:00,
2013-08-16 17:00:00,79.9,55.4,30.14,North,0,0.0,0.0,43,0.00,,CLR,0.00,VWS V14.00,2013-08-16 21:00:00,
2013-08-16 17:15:00,81.0,55.7,30.17,North,0,0.0,0.0,42,0.00,,CLR,0.00,VWS V14.00,2013-08-16 21:15:00,
2013-08-16 17:30:00,79.5,55.1,30.17,North,0,0.0,0.0,43,0.00,,CLR,0.00,VWS V14.00,2013-08-16 21:30:00,
2013-08-16 17:45:00,81.7,56.4,30.17,North,0,0.0,0.0,42,0.00,,CLR,0.00,VWS V14.00,2013-08-16 21:45:00,
2013-08-16 18:00:00,79.7,55.2,30.17,North,0,0.0,0.0,43,0.00,,CLR,0.00,VWS V14.00,2013-08-16 22:00:00,
2013-08-16 18:15:00,79.0,54.6,30.17,North,0,0.0,0.0,43,0.00,,CLR,0.00,VWS V14.00,2013-08-16 22:15:00,
2013-08-16 18:30:00,78.1,53.8,30.17,North,0,0.0,0.0,43,0.00,,CLR,0.00,VWS V14.00,2013-08-16 22:30:00,
2013-08-16 18:45:00,78.1,53.8,30.17,North,0,0.0,0.0,43,0.00,,CLR,0.00,VWS V14.00,2013-08-16 22:45:00,
2013-08-16 19:00:00,77.4,53.1,30.17,North,0,0.0,0.0,43,0.00,,CLR,0.00,VWS V14.00,2013-08-16 23:00:00,
2013-08-16 19:15:00,75.4,51.3,30.17,North,0,0.0,0.0,43,0.00,,CLR,0.00,VWS V14.00,2013-08-16 23:15:00,
2013-08-16 19:44:00,72.0,50.7,30.17,North,0,0.0,0.0,47,0.00,,CLR,0.00,VWS V14.00,2013-08-16 23:44:00,
2013-08-16 19:59:00,70.3,50.8,30.17,North,0,0.0,0.0,50,0.00,,CLR,0.00,VWS V14.00,2013-08-16 23:59:00,
2013-08-16 20:14:00,68.9,50.0,30.17,North,0,0.0,0.0,51,0.00,,CLR,0.00,VWS V14.00,2013-08-17 00:14:00,
2013-08-16 20:29:00,67.1,49.4,30.17,North,0,0.0,0.0,53,0.00,,CLR,0.00,VWS V14.00,2013-08-17 00:29:00,
2013-08-16 20:44:00,66.6,49.4,30.17,North,0,0.0,0.0,54,0.00,,CLR,0.00,VWS V14.00,2013-08-17 00:44:00,
2013-08-16 20:59:00,65.7,50.0,30.17,North,0,0.0,0.0,57,0.00,,CLR,0.00,VWS V14.00,2013-08-17 00:59:00,
2013-08-16 21:14:00,64.0,50.3,30.20,North,0,0.0,0.0,61,0.00,,CLR,0.00,VWS V14.00,2013-08-17 01:14:00,
2013-08-16 21:29:00,63.1,53.2,30.20,North,0,0.0,0.0,70,0.00,,CLR,0.00,VWS V14.00,2013-08-17 01:29:00,
2013-08-16 21:44:00,61.9,55.0,30.20,North,0,0.0,0.0,78,0.00,,CLR,0.00,VWS V14.00,2013-08-17 01:44:00,
2013-08-16 21:59:00,60.8,56.3,30.20,North,0,0.0,0.0,85,0.00,,CLR,0.00,VWS V14.00,2013-08-17 01:59:00,
2013-08-16 22:14:00,60.1,57.8,30.20,North,0,0.0,0.0,92,0.00,,CLR,0.00,VWS V14.00,2013-08-17 02:14:00,
2013-08-16 22:29:00,59.7,57.1,30.20,North,0,0.0,0.0,91,0.00,,CLR,0.00,VWS V14.00,2013-08-17 02:29:00,
2013-08-16 22:44:00,59.4,57.0,30.20,North,0,0.0,0.0,92,0.00,,CLR,0.00,VWS V14.00,2013-08-17 02:44:00,
2013-08-16 22:59:00,59.0,57.9,30.20,North,0,0.0,0.0,96,0.00,,CLR,0.00,VWS V14.00,2013-08-17 02:59:00,
2013-08-16 23:14:00,58.8,58.0,30.20,North,0,0.0,0.0,97,0.00,,CLR,0.00,VWS V14.00,2013-08-17 03:14:00,
2013-08-16 23:29:00,58.5,57.9,30.20,North,0,0.0,0.0,98,0.00,,CLR,0.00,VWS V14.00,2013-08-17 03:29:00,
2013-08-16 23:44:00,57.9,57.6,30.20,North,0,0.0,0.0,99,0.00,,CLR,0.00,VWS V14.00,2013-08-17 03:44:00,
2013-08-16 23:59:00,57.2,57.2,30.20,North,0,0.0,0.0,100,0.00,,CLR,0.00,VWS V14.00,2013-08-17 03:59:00,